Regent, ND (58650)

12:15 PM MDT on July 29, 2015 (GMT -0600)
New England | | Change Station
CLOSE
Current Station
Personal Weather Station
Location: New England, ND
Elevation: 2598 ft
Nearby Weather Stations

Elev 2598 ft 46.54 °N, 102.87 °W | Updated 5 seconds ago

Partly Cloudy
Partly Cloudy
77.2 °F
Feels Like 78 °F
N
1.8
Wind Variable Wind from WNW
Gusts 4.9 mph

Today
High -- | Low -- °F
--% Chance of Precip.
Yesterday
High -- | Low -- °F
Precip. -- in
5:27 AM 8:25 PM
Waxing Gibbous, 96% visible
Pressure 30.08 in
Visibility 10.0 miles
Clouds Clear
Heat Index 78 °F
Dew Point 43 °F
Humidity 30%
Rainfall 0.00 in
Snow Depth Not available.
UV 5.0 out of 12
Pollen 8.00 out of 12
Air Quality Not available.
Flu Activity Not available.
METAR KDIK 291756Z AUTO 29014G24KT 10SM CLR 24/08 A3011 RMK AO2 SLP184 T02390078 10239 20133 50005

More Conditions Fewer Conditions

Pressure 30.08 in
Visibility 10.0 miles
Clouds Clear
Heat Index 78 °F
Dew Point 43 °F
Humidity 30%
Rainfall 0.00 in
Snow Depth Not available.
UV 5.0 out of 12
Pollen 8.00 out of 12
Air Quality Not available.
Flu Activity Not available.
METAR KDIK 291756Z AUTO 29014G24KT 10SM CLR 24/08 A3011 RMK AO2 SLP184 T02390078 10239 20133 50005

More Conditions Fewer Conditions

10-Day Weather Forecast

×

Almanac

Astronomy

Jul. 29, 2015 Rise Set
Actual Time
Civil Twilight
Nautical Twilight
Astronomical Twilight
Moon
Length of Visible Light
Length of Day
Tomorrow will be .
, % of the Moon is Illuminated

Today's Extremes

State Highs State Lows

Community

WunderPhotos

Upload Photos

1,842,141 photos uploaded!

WunderBlogs® & News

Nearby

Air Quality

  Air Quality AQ Index Pollutant
Not available.

Snow Depth

Station Depth Elevation

Earthquake Activity

City Distance Mag. Time & Date
Minimum magnitude displayed is 2.5.

Coastal Water Temperatures

Place Temperature

Stations

Nearby Weather Stations

Station Location Temp. Windchill Dew Point Humidity Wind Precip. Elev Updated Type